Time;durP1;ratioP1;P1;durP2;ratioP2;P2;SDS_P1;SDS_P2;PMS_P1;PMS_P2;Temp;Humidity;BMP_temperature;BMP_pressure;BME280_temperature;BME280_humidity;BME280_pressure;Samples;Min_cycle;Max_cycle;Signal;HPM_P1;HPM_P2
2022/08/15 00:00:37;;;;;;;6.50;4.38;;;;;;;;;;4996384;28;20515;-73
2022/08/15 00:03:04;;;;;;;4.40;3.92;;;;;;;;;;4996736;28;20101;-73
2022/08/15 00:05:33;;;;;;;4.03;3.45;;;;;;;;;;4996470;28;20592;-73
2022/08/15 00:07:59;;;;;;;6.57;3.78;;;;;;;;;;4996344;28;20034;-73
2022/08/15 00:10:25;;;;;;;5.53;4.43;;;;;;;;;;4996473;28;20405;-73
2022/08/15 00:12:52;;;;;;;7.03;4.15;;;;;;;;;;4996293;28;20034;-73
2022/08/15 00:15:19;;;;;;;5.95;4.25;;;;;;;;;;4997000;28;20053;-73
2022/08/15 00:17:48;;;;;;;8.02;4.03;;;;;;;;;;4996558;28;20042;-73
2022/08/15 00:20:15;;;;;;;5.10;4.28;;;;;;;;;;4996485;28;20050;-73
2022/08/15 00:22:49;;;;;;;6.75;3.92;;;;;;;;;;4996347;28;20488;-73
2022/08/15 00:25:15;;;;;;;4.13;3.63;;;;;;;;;;4996307;28;20050;-73
2022/08/15 00:27:41;;;;;;;7.50;4.68;;;;;;;;;;4996368;28;20093;-73
2022/08/15 00:30:08;;;;;;;4.40;3.67;;;;;;;;;;4995837;28;20038;-73
2022/08/15 00:32:36;;;;;;;5.68;3.95;;;;;;;;;;4995932;28;20038;-73
2022/08/15 00:35:03;;;;;;;4.07;3.78;;;;;;;;;;4995595;28;20158;-73
2022/08/15 00:37:29;;;;;;;6.80;4.03;;;;;;;;;;4996191;28;20049;-73
2022/08/15 00:39:56;;;;;;;6.57;4.57;;;;;;;;;;4995885;28;20476;-73
2022/08/15 00:42:25;;;;;;;5.90;4.03;;;;;;;;;;4996065;28;20034;-73
2022/08/15 00:44:54;;;;;;;6.22;3.95;;;;;;;;;;4995659;28;20054;-73
2022/08/15 00:47:22;;;;;;;5.55;4.20;;;;;;;;;;4996251;28;20034;-73
2022/08/15 00:49:48;;;;;;;5.70;3.78;;;;;;;;;;4996217;28;20042;-73
2022/08/15 00:52:17;;;;;;;7.00;3.92;;;;;;;;;;4995891;28;20045;-73
2022/08/15 00:54:45;;;;;;;6.57;4.03;;;;;;;;;;4995655;28;20050;-73
2022/08/15 00:57:19;;;;;;;6.35;3.95;;;;;;;;;;4996241;28;20046;-73
2022/08/15 00:59:50;;;;;;;6.50;4.38;;;;;;;;;;4995524;28;20129;-73
2022/08/15 01:02:17;;;;;;;5.90;3.90;;;;;;;;;;4995784;28;20083;-73
2022/08/15 01:04:44;;;;;;;9.63;3.88;;;;;;;;;;4995552;28;20042;-73
2022/08/15 01:07:10;;;;;;;6.32;4.20;;;;;;;;;;4995916;28;20045;-73
2022/08/15 01:09:37;;;;;;;5.30;3.80;;;;;;;;;;4995301;28;20382;-73
2022/08/15 01:12:13;;;;;;;6.15;3.85;;;;;;;;;;4995343;28;20056;-73
2022/08/15 01:14:40;;;;;;;4.80;3.97;;;;;;;;;;4994567;28;20047;-73
2022/08/15 01:17:08;;;;;;;4.25;3.85;;;;;;;;;;4995759;28;20046;-73
2022/08/15 01:19:40;;;;;;;5.60;3.70;;;;;;;;;;4995458;28;20115;-73
2022/08/15 01:22:09;;;;;;;5.60;3.78;;;;;;;;;;4995416;28;20052;-73
2022/08/15 01:24:52;;;;;;;4.22;3.70;;;;;;;;;;4995413;28;20046;-73
2022/08/15 01:27:19;;;;;;;5.05;3.83;;;;;;;;;;4995107;28;20409;-73
2022/08/15 01:29:46;;;;;;;5.63;3.97;;;;;;;;;;4995278;28;20065;-73
2022/08/15 01:32:13;;;;;;;4.85;4.15;;;;;;;;;;4995279;28;20117;-73
2022/08/15 01:34:39;;;;;;;7.10;3.78;;;;;;;;;;4994855;28;20046;-73
2022/08/15 01:37:05;;;;;;;7.13;4.20;;;;;;;;;;4994982;28;20072;-73
2022/08/15 01:39:37;;;;;;;6.35;3.70;;;;;;;;;;4995187;28;20034;-73
2022/08/15 01:42:18;;;;;;;7.50;4.22;;;;;;;;;;4994864;28;20046;-73
2022/08/15 01:44:45;;;;;;;4.75;4.03;;;;;;;;;;4994771;28;20059;-73
2022/08/15 01:47:19;;;;;;;6.10;4.07;;;;;;;;;;4994855;28;20042;-73
2022/08/15 01:49:54;;;;;;;5.50;3.60;;;;;;;;;;4995126;28;20046;-73
2022/08/15 01:52:23;;;;;;;5.50;4.00;;;;;;;;;;4995338;28;20069;-73
2022/08/15 01:54:49;;;;;;;5.53;3.78;;;;;;;;;;4995553;28;20061;-73
2022/08/15 01:57:15;;;;;;;3.97;3.50;;;;;;;;;;4995050;28;20053;-73
2022/08/15 01:59:42;;;;;;;5.00;4.47;;;;;;;;;;4994855;28;20129;-73
2022/08/15 02:02:11;;;;;;;6.72;4.00;;;;;;;;;;4994975;28;20030;-73
2022/08/15 02:04:39;;;;;;;7.03;4.30;;;;;;;;;;4995311;28;20058;-73
2022/08/15 02:07:20;;;;;;;6.88;3.97;;;;;;;;;;4994955;28;20097;-73
2022/08/15 02:09:46;;;;;;;8.98;4.20;;;;;;;;;;4995167;28;20078;-73
2022/08/15 02:12:14;;;;;;;4.88;4.38;;;;;;;;;;4994587;28;20058;-73
2022/08/15 02:14:41;;;;;;;7.65;3.80;;;;;;;;;;4994967;28;20125;-73
2022/08/15 02:17:08;;;;;;;4.85;4.13;;;;;;;;;;4994826;28;20045;-73
2022/08/15 02:19:35;;;;;;;6.75;3.97;;;;;;;;;;4994835;28;20134;-73
2022/08/15 02:22:01;;;;;;;4.75;4.15;;;;;;;;;;4994620;28;20078;-73
2022/08/15 02:24:27;;;;;;;7.25;4.10;;;;;;;;;;4994883;28;20050;-73
2022/08/15 02:26:54;;;;;;;6.75;4.38;;;;;;;;;;4996070;28;20031;-73
2022/08/15 02:29:22;;;;;;;5.07;3.78;;;;;;;;;;4998037;28;20039;-73
2022/08/15 02:31:51;;;;;;;6.90;4.18;;;;;;;;;;4998177;28;20038;-73
2022/08/15 02:34:18;;;;;;;4.85;3.90;;;;;;;;;;4998048;28;20046;-73
2022/08/15 02:36:44;;;;;;;7.47;4.32;;;;;;;;;;4998365;28;20046;-73
2022/08/15 02:39:10;;;;;;;5.88;3.90;;;;;;;;;;4998357;28;20069;-73
2022/08/15 02:41:50;;;;;;;5.30;4.07;;;;;;;;;;4998302;28;20057;-73
2022/08/15 02:44:16;;;;;;;6.13;4.20;;;;;;;;;;4997594;28;20166;-73
2022/08/15 02:46:43;;;;;;;6.57;4.15;;;;;;;;;;4995842;28;20038;-73
2022/08/15 02:49:12;;;;;;;7.60;4.45;;;;;;;;;;4996419;28;20042;-73
2022/08/15 02:51:39;;;;;;;5.43;4.35;;;;;;;;;;4996985;28;20042;-73
2022/08/15 02:54:06;;;;;;;5.68;4.55;;;;;;;;;;4996725;28;20234;-73
2022/08/15 02:56:33;;;;;;;6.95;4.13;;;;;;;;;;4997942;28;20047;-73
2022/08/15 02:59:00;;;;;;;6.43;4.60;;;;;;;;;;4996955;28;20034;-73
2022/08/15 03:01:27;;;;;;;8.20;4.03;;;;;;;;;;4997817;28;20129;-73
2022/08/15 03:03:54;;;;;;;7.00;4.50;;;;;;;;;;4997693;28;20050;-73
2022/08/15 03:06:25;;;;;;;5.10;4.45;;;;;;;;;;4997769;28;20041;-73
2022/08/15 03:08:52;;;;;;;5.00;4.28;;;;;;;;;;4998371;28;20050;-73
2022/08/15 03:11:18;;;;;;;5.72;4.35;;;;;;;;;;4997423;28;20037;-73
2022/08/15 03:13:44;;;;;;;8.23;4.47;;;;;;;;;;4997500;28;20050;-73
2022/08/15 03:16:11;;;;;;;4.85;3.95;;;;;;;;;;4997336;28;20038;-73
2022/08/15 03:18:41;;;;;;;5.00;3.80;;;;;;;;;;4997583;28;20117;-73
2022/08/15 03:21:08;;;;;;;6.00;4.43;;;;;;;;;;4997535;28;20042;-73
2022/08/15 03:23:35;;;;;;;5.85;4.15;;;;;;;;;;4998141;28;20050;-73
2022/08/15 03:26:01;;;;;;;5.65;4.53;;;;;;;;;;4997244;28;20045;-73
2022/08/15 03:28:29;;;;;;;6.40;4.75;;;;;;;;;;4997319;28;20076;-73
2022/08/15 03:30:59;;;;;;;4.55;4.15;;;;;;;;;;4997734;28;20044;-73
2022/08/15 03:33:26;;;;;;;5.53;4.80;;;;;;;;;;4998162;28;20100;-73
2022/08/15 03:35:52;;;;;;;6.97;4.22;;;;;;;;;;4999311;28;20038;-73
2022/08/15 03:38:18;;;;;;;8.38;4.57;;;;;;;;;;5014168;28;20069;-72
2022/08/15 03:40:46;;;;;;;4.93;4.18;;;;;;;;;;5013851;28;20041;-72
2022/08/15 03:43:18;;;;;;;6.97;5.10;;;;;;;;;;5015772;28;20057;-72
2022/08/15 03:45:46;;;;;;;6.22;4.18;;;;;;;;;;5016148;28;20053;-72
2022/08/15 03:48:12;;;;;;;6.15;4.47;;;;;;;;;;5016408;28;20044;-72
2022/08/15 03:50:39;;;;;;;5.78;4.40;;;;;;;;;;5015634;28;20539;-72
2022/08/15 03:53:06;;;;;;;5.10;4.32;;;;;;;;;;5016208;28;20471;-72
2022/08/15 03:55:34;;;;;;;5.65;4.30;;;;;;;;;;5015333;28;20046;-73
2022/08/15 03:58:00;;;;;;;4.80;4.32;;;;;;;;;;5015945;28;20041;-72
2022/08/15 04:00:37;;;;;;;5.40;4.25;;;;;;;;;;5014640;28;20179;-72
2022/08/15 04:03:07;;;;;;;6.00;4.38;;;;;;;;;;4997694;28;20042;-72
2022/08/15 04:05:35;;;;;;;5.40;4.70;;;;;;;;;;4999924;28;20081;-71
2022/08/15 04:08:02;;;;;;;5.68;4.68;;;;;;;;;;5016343;28;20038;-69
2022/08/15 04:10:29;;;;;;;6.20;4.60;;;;;;;;;;5016109;28;20065;-70
2022/08/15 04:12:55;;;;;;;6.13;3.95;;;;;;;;;;5016091;28;20121;-70
2022/08/15 04:15:22;;;;;;;6.80;4.30;;;;;;;;;;5015717;28;20108;-68
2022/08/15 04:17:48;;;;;;;5.43;3.90;;;;;;;;;;5016403;28;20129;-69
2022/08/15 04:20:14;;;;;;;6.28;4.47;;;;;;;;;;5015623;28;20041;-69
2022/08/15 04:22:42;;;;;;;7.55;3.85;;;;;;;;;;5015743;28;20042;-69
2022/08/15 04:25:13;;;;;;;6.35;4.13;;;;;;;;;;5015768;28;20516;-69
2022/08/15 04:27:39;;;;;;;20.55;18.50;;;;;;;;;;5015573;28;20046;-68
2022/08/15 04:30:06;;;;;;;17.70;14.88;;;;;;;;;;5015465;28;20038;-69
2022/08/15 04:32:32;;;;;;;8.07;5.68;;;;;;;;;;5015593;28;20099;-69
2022/08/15 04:35:02;;;;;;;5.35;4.57;;;;;;;;;;5015146;28;20076;-69
2022/08/15 04:37:29;;;;;;;5.67;4.43;;;;;;;;;;5015745;28;20129;-69
2022/08/15 04:39:56;;;;;;;6.72;4.47;;;;;;;;;;5015783;28;20327;-69
2022/08/15 04:42:24;;;;;;;6.32;4.03;;;;;;;;;;5015357;28;20056;-72
2022/08/15 04:44:51;;;;;;;5.43;4.18;;;;;;;;;;5014886;28;20420;-70
2022/08/15 04:47:17;;;;;;;14.30;4.30;;;;;;;;;;5015549;28;20070;-70
2022/08/15 04:49:44;;;;;;;5.30;4.22;;;;;;;;;;5015083;28;20048;-70
2022/08/15 04:52:12;;;;;;;6.18;4.18;;;;;;;;;;5015160;28;20033;-70
2022/08/15 04:54:38;;;;;;;4.20;3.80;;;;;;;;;;5015450;28;20045;-71
2022/08/15 04:59:36;;;;;;;;;;;;;;;;;;5033611;28;20136;-71
2022/08/15 05:02:03;;;;;;;7.22;4.25;;;;;;;;;;5035203;28;19941;-71
2022/08/15 05:07:05;;;;;;;9.65;4.38;;;;;;;;;;5218760;22;20115;-72
2022/08/15 05:09:31;;;;;;;7.32;4.60;;;;;;;;;;5035559;28;20037;-72
2022/08/15 05:11:57;;;;;;;9.05;4.32;;;;;;;;;;5035319;28;20038;-72
2022/08/15 05:14:23;;;;;;;5.72;4.30;;;;;;;;;;5035018;28;20045;-72
2022/08/15 05:16:49;;;;;;;8.15;4.70;;;;;;;;;;5034930;28;20045;-72
2022/08/15 05:19:15;;;;;;;4.75;3.92;;;;;;;;;;5034807;28;20522;-72
2022/08/15 05:21:42;;;;;;;9.70;4.50;;;;;;;;;;5035007;28;20139;-72
2022/08/15 05:24:09;;;;;;;5.88;3.90;;;;;;;;;;5035016;28;20076;-72
2022/08/15 05:26:35;;;;;;;4.43;4.03;;;;;;;;;;5035325;28;20142;-72
2022/08/15 05:29:01;;;;;;;5.32;3.75;;;;;;;;;;5034975;28;20040;-72
2022/08/15 05:31:28;;;;;;;6.68;4.00;;;;;;;;;;5034900;28;20124;-72
2022/08/15 05:33:54;;;;;;;7.10;4.35;;;;;;;;;;5034493;28;20044;-72
2022/08/15 05:36:21;;;;;;;5.18;3.92;;;;;;;;;;5034191;28;20069;-72
2022/08/15 05:38:53;;;;;;;5.22;3.80;;;;;;;;;;5035445;28;20080;-72
2022/08/15 05:41:22;;;;;;;7.68;3.85;;;;;;;;;;5035237;28;20053;-72
2022/08/15 05:43:58;;;;;;;5.78;3.90;;;;;;;;;;5034856;28;20042;-72
2022/08/15 05:46:27;;;;;;;4.88;3.92;;;;;;;;;;5034992;28;20509;-72
2022/08/15 05:49:16;;;;;;;5.53;3.88;;;;;;;;;;5034855;28;20042;-72
2022/08/15 05:51:42;;;;;;;5.93;3.38;;;;;;;;;;5021811;28;20042;-73
2022/08/15 05:54:30;;;;;;;5.95;3.58;;;;;;;;;;5034607;28;20048;-72
2022/08/15 05:57:05;;;;;;;6.88;4.03;;;;;;;;;;5034858;28;20077;-73
2022/08/15 05:59:39;;;;;;;6.55;3.55;;;;;;;;;;5034523;28;20041;-72
2022/08/15 06:02:11;;;;;;;9.68;3.25;;;;;;;;;;5037692;28;20051;-72
2022/08/15 06:04:50;;;;;;;4.28;2.78;;;;;;;;;;5039356;28;20049;-73
2022/08/15 06:07:17;;;;;;;3.50;3.00;;;;;;;;;;5038497;28;20576;-73
2022/08/15 06:09:46;;;;;;;6.57;3.50;;;;;;;;;;5038364;28;20090;-73
2022/08/15 06:12:15;;;;;;;5.15;3.58;;;;;;;;;;5038361;28;20179;-73
2022/08/15 06:14:44;;;;;;;6.50;3.28;;;;;;;;;;5038235;28;20048;-73
2022/08/15 06:17:33;;;;;;;6.00;3.58;;;;;;;;;;5038109;28;20049;-73
2022/08/15 06:20:03;;;;;;;5.10;3.45;;;;;;;;;;5038299;28;20046;-73
2022/08/15 06:22:47;;;;;;;6.67;3.57;;;;;;;;;;5038696;28;20087;-73
2022/08/15 06:25:31;;;;;;;5.72;3.13;;;;;;;;;;5038654;28;20268;-73
2022/08/15 06:28:26;;;;;;;5.25;3.22;;;;;;;;;;5038049;28;20487;-72
2022/08/15 06:31:06;;;;;;;6.22;3.42;;;;;;;;;;5038217;28;20073;-73
2022/08/15 06:33:40;;;;;;;6.85;3.15;;;;;;;;;;5038191;28;20399;-73
2022/08/15 06:36:17;;;;;;;4.28;3.28;;;;;;;;;;5037834;28;20069;-73
2022/08/15 06:38:50;;;;;;;7.65;3.70;;;;;;;;;;5037817;28;20049;-73
2022/08/15 06:41:16;;;;;;;7.38;3.63;;;;;;;;;;5037797;28;20084;-73
2022/08/15 06:43:44;;;;;;;6.43;3.20;;;;;;;;;;5037706;28;20076;-73
2022/08/15 06:46:10;;;;;;;3.78;3.03;;;;;;;;;;5037770;28;20527;-73
2022/08/15 06:48:38;;;;;;;3.90;3.10;;;;;;;;;;5037654;28;20045;-73
2022/08/15 06:51:06;;;;;;;4.30;3.15;;;;;;;;;;5037570;28;20040;-73
2022/08/15 06:53:32;;;;;;;3.88;3.10;;;;;;;;;;5038058;28;20045;-73
2022/08/15 06:56:03;;;;;;;4.68;3.10;;;;;;;;;;5037189;28;20052;-73
2022/08/15 06:58:43;;;;;;;4.95;3.13;;;;;;;;;;5037749;28;20099;-73
2022/08/15 07:01:22;;;;;;;8.45;3.42;;;;;;;;;;5037235;28;20052;-72
2022/08/15 07:03:48;;;;;;;3.28;2.88;;;;;;;;;;5038000;28;20073;-73
2022/08/15 07:06:17;;;;;;;6.30;3.45;;;;;;;;;;5037404;28;20096;-73
2022/08/15 07:08:51;;;;;;;4.88;3.55;;;;;;;;;;5038121;28;20041;-73
2022/08/15 07:11:38;;;;;;;4.35;3.40;;;;;;;;;;5037228;28;20084;-73
2022/08/15 07:14:07;;;;;;;7.45;3.65;;;;;;;;;;5019565;28;20048;-73
2022/08/15 07:16:44;;;;;;;8.70;4.25;;;;;;;;;;5037647;28;20103;-73
2022/08/15 07:19:11;;;;;;;6.88;4.15;;;;;;;;;;5037637;28;20037;-73
2022/08/15 07:21:37;;;;;;;7.18;3.63;;;;;;;;;;5037165;28;20100;-73
2022/08/15 07:24:06;;;;;;;5.10;4.00;;;;;;;;;;5037245;28;20565;-73
2022/08/15 07:26:41;;;;;;;7.60;3.92;;;;;;;;;;5037526;28;20037;-73
2022/08/15 07:29:17;;;;;;;5.57;4.20;;;;;;;;;;5037276;28;20041;-73
2022/08/15 07:31:44;;;;;;;6.07;4.35;;;;;;;;;;5036975;28;20041;-73
2022/08/15 07:34:20;;;;;;;9.18;4.35;;;;;;;;;;5036977;28;20364;-73
2022/08/15 07:36:51;;;;;;;5.25;3.78;;;;;;;;;;5036699;28;20045;-73
2022/08/15 07:39:23;;;;;;;4.32;3.90;;;;;;;;;;5036792;28;20066;-73
2022/08/15 07:41:49;;;;;;;5.82;3.95;;;;;;;;;;5036975;28;20075;-72
2022/08/15 07:44:15;;;;;;;6.53;3.90;;;;;;;;;;5036658;28;20046;-72
2022/08/15 07:46:44;;;;;;;8.40;4.47;;;;;;;;;;5036644;28;20049;-73
2022/08/15 07:49:16;;;;;;;5.68;4.05;;;;;;;;;;5036818;28;20041;-72
2022/08/15 07:51:48;;;;;;;6.53;4.18;;;;;;;;;;5036770;28;20112;-72
2022/08/15 07:54:29;;;;;;;9.35;4.40;;;;;;;;;;5036718;28;20045;-72
2022/08/15 07:56:58;;;;;;;7.50;4.28;;;;;;;;;;5036858;28;20049;-72
2022/08/15 07:59:34;;;;;;;5.35;3.65;;;;;;;;;;5036235;28;20493;-72
2022/08/15 08:02:05;;;;;;;6.78;3.97;;;;;;;;;;5036686;28;20045;-72
2022/08/15 08:04:33;;;;;;;8.85;3.65;;;;;;;;;;5036454;28;20037;-72
2022/08/15 08:06:59;;;;;;;6.82;3.70;;;;;;;;;;5036168;28;20061;-73
2022/08/15 08:09:29;;;;;;;7.45;4.70;;;;;;;;;;5036704;28;20675;-73
2022/08/15 08:12:07;;;;;;;7.73;3.90;;;;;;;;;;5036216;28;20064;-72
2022/08/15 08:14:55;;;;;;;5.20;3.72;;;;;;;;;;5035658;28;20136;-73
2022/08/15 08:17:31;;;;;;;4.63;4.10;;;;;;;;;;5035630;28;20414;-72
2022/08/15 08:20:05;;;;;;;6.03;4.00;;;;;;;;;;5036119;28;20073;-73
2022/08/15 08:22:39;;;;;;;9.60;4.45;;;;;;;;;;5036424;28;20042;-73
2022/08/15 08:25:14;;;;;;;8.98;4.07;;;;;;;;;;5035066;28;20065;-73
2022/08/15 08:27:49;;;;;;;5.95;4.22;;;;;;;;;;5036351;28;20069;-73
2022/08/15 08:30:19;;;;;;;6.38;3.95;;;;;;;;;;5035981;28;20051;-73
2022/08/15 08:32:52;;;;;;;6.93;4.23;;;;;;;;;;5035317;28;20410;-72
2022/08/15 08:35:30;;;;;;;6.28;4.50;;;;;;;;;;5035726;28;20124;-73
2022/08/15 08:38:02;;;;;;;5.57;4.28;;;;;;;;;;5035583;28;20041;-73
2022/08/15 08:43:39;;;;;;;8.77;4.40;;;;;;;;;;5035052;28;20048;-73
2022/08/15 08:46:14;;;;;;;5.38;4.18;;;;;;;;;;5034810;28;20499;-73
2022/08/15 08:48:58;;;;;;;7.40;4.60;;;;;;;;;;5035398;28;20044;-72
2022/08/15 08:51:53;;;;;;;7.82;3.90;;;;;;;;;;5035225;28;20076;-73
2022/08/15 08:54:31;;;;;;;6.18;3.88;;;;;;;;;;4947957;28;20051;-73
2022/08/15 08:57:00;;;;;;;8.65;4.40;;;;;;;;;;5035508;28;20391;-72
2022/08/15 08:59:52;;;;;;;4.57;3.80;;;;;;;;;;5035131;28;20128;-73
2022/08/15 09:02:18;;;;;;;4.75;4.22;;;;;;;;;;5030717;28;20112;-73
2022/08/15 09:04:49;;;;;;;5.25;4.25;;;;;;;;;;5035127;28;20045;-72
2022/08/15 09:07:22;;;;;;;4.78;3.78;;;;;;;;;;5035563;28;20506;-73
2022/08/15 09:09:49;;;;;;;5.97;4.03;;;;;;;;;;5035123;28;20045;-73
2022/08/15 09:15:06;;;;;;;4.80;3.92;;;;;;;;;;5035223;28;20051;-72
2022/08/15 09:17:34;;;;;;;5.07;3.70;;;;;;;;;;5035217;28;20049;-73
2022/08/15 09:20:05;;;;;;;9.43;4.13;;;;;;;;;;5035029;28;20033;-72
2022/08/15 09:22:31;;;;;;;4.55;3.90;;;;;;;;;;5034814;28;20064;-73
2022/08/15 09:24:57;;;;;;;6.25;3.70;;;;;;;;;;5035142;28;20518;-73
2022/08/15 09:27:31;;;;;;;5.20;3.50;;;;;;;;;;5034778;28;20041;-73
2022/08/15 09:30:08;;;;;;;5.18;3.95;;;;;;;;;;5035379;28;20049;-72
2022/08/15 09:32:43;;;;;;;3.90;3.60;;;;;;;;;;5035548;28;20096;-73
2022/08/15 09:35:12;;;;;;;5.13;3.63;;;;;;;;;;5034768;28;20045;-73
2022/08/15 09:37:48;;;;;;;4.97;3.63;;;;;;;;;;5035496;28;20124;-73
2022/08/15 09:40:29;;;;;;;6.75;4.03;;;;;;;;;;5034897;28;20479;-73
2022/08/15 09:43:03;;;;;;;5.30;3.80;;;;;;;;;;5034719;28;20048;-73
2022/08/15 09:45:42;;;;;;;8.07;4.10;;;;;;;;;;5034513;28;20057;-72
2022/08/15 09:48:22;;;;;;;5.97;3.88;;;;;;;;;;5034894;28;20096;-72
2022/08/15 09:50:48;;;;;;;7.07;4.10;;;;;;;;;;5034496;28;20480;-73
2022/08/15 09:53:19;;;;;;;5.20;3.50;;;;;;;;;;5034685;28;20140;-73
2022/08/15 09:55:47;;;;;;;3.97;3.67;;;;;;;;;;5034779;28;20053;-73
2022/08/15 09:58:13;;;;;;;4.93;4.05;;;;;;;;;;5034615;28;20033;-73
2022/08/15 10:01:03;;;;;;;6.57;3.75;;;;;;;;;;5034894;28;20102;-72
2022/08/15 10:03:44;;;;;;;7.22;3.83;;;;;;;;;;5035482;28;20049;-72
2022/08/15 10:06:18;;;;;;;6.82;3.38;;;;;;;;;;5034480;28;20049;-72
2022/08/15 10:08:47;;;;;;;7.65;3.70;;;;;;;;;;5034630;28;20128;-72
2022/08/15 10:11:13;;;;;;;5.80;3.47;;;;;;;;;;5034822;28;20037;-72
2022/08/15 10:13:39;;;;;;;6.18;3.97;;;;;;;;;;5034726;28;20068;-73
2022/08/15 10:16:26;;;;;;;5.53;3.42;;;;;;;;;;5034842;28;20053;-73
2022/08/15 10:18:52;;;;;;;7.38;4.15;;;;;;;;;;5033580;28;20048;-73
2022/08/15 10:21:21;;;;;;;7.03;3.65;;;;;;;;;;5033270;28;20040;-72
2022/08/15 10:23:51;;;;;;;4.72;4.07;;;;;;;;;;5033876;28;20199;-73
2022/08/15 10:26:28;;;;;;;6.60;3.78;;;;;;;;;;5033573;28;20053;-72
2022/08/15 10:29:00;;;;;;;6.65;3.70;;;;;;;;;;5031180;28;20036;-72
2022/08/15 10:31:27;;;;;;;4.13;3.70;;;;;;;;;;5034332;28;20041;-72
2022/08/15 10:33:58;;;;;;;8.10;3.78;;;;;;;;;;5034294;28;20045;-72
2022/08/15 10:36:24;;;;;;;5.00;3.55;;;;;;;;;;5033732;28;20061;-72
2022/08/15 10:38:55;;;;;;;5.70;3.47;;;;;;;;;;5033741;28;20156;-74
2022/08/15 10:41:40;;;;;;;4.88;3.33;;;;;;;;;;5034775;28;20048;-73
2022/08/15 10:44:12;;;;;;;7.63;3.67;;;;;;;;;;5033188;28;20041;-72
2022/08/15 10:46:45;;;;;;;7.95;3.28;;;;;;;;;;5034168;28;20121;-72
2022/08/15 10:49:30;;;;;;;6.22;3.58;;;;;;;;;;5037330;28;20048;-72
2022/08/15 10:51:56;;;;;;;6.55;3.70;;;;;;;;;;5036498;28;20037;-72
2022/08/15 10:54:49;;;;;;;4.70;3.40;;;;;;;;;;5036537;28;20056;-72
2022/08/15 10:57:17;;;;;;;7.18;3.90;;;;;;;;;;5037596;28;20049;-73
2022/08/15 10:59:46;;;;;;;5.43;3.65;;;;;;;;;;5037497;28;20040;-74
2022/08/15 11:02:18;;;;;;;5.70;3.67;;;;;;;;;;5036636;28;20045;-74
2022/08/15 11:04:45;;;;;;;5.25;3.45;;;;;;;;;;5037318;28;20045;-71
2022/08/15 11:07:18;;;;;;;5.60;3.53;;;;;;;;;;5037043;28;20057;-72
2022/08/15 11:09:51;;;;;;;7.05;3.78;;;;;;;;;;5035965;28;20120;-70
2022/08/15 11:12:19;;;;;;;6.68;3.85;;;;;;;;;;5032065;28;20111;-71
2022/08/15 11:14:50;;;;;;;7.22;3.83;;;;;;;;;;5025303;28;20045;-71
2022/08/15 11:17:22;;;;;;;4.75;3.65;;;;;;;;;;5016040;28;20539;-71
2022/08/15 11:19:50;;;;;;;7.53;4.00;;;;;;;;;;5016950;28;20057;-71
2022/08/15 11:22:28;;;;;;;9.85;4.18;;;;;;;;;;5015915;28;20492;-70
2022/08/15 11:24:56;;;;;;;6.28;3.70;;;;;;;;;;5016339;28;20040;-71
2022/08/15 11:27:24;;;;;;;5.63;3.90;;;;;;;;;;5017157;28;20045;-71
2022/08/15 11:29:52;;;;;;;6.53;3.25;;;;;;;;;;5017330;28;20067;-71
2022/08/15 11:32:27;;;;;;;5.78;3.90;;;;;;;;;;5016761;28;20133;-71
2022/08/15 11:34:53;;;;;;;7.18;3.90;;;;;;;;;;5017274;28;20042;-71
2022/08/15 11:37:21;;;;;;;3.90;3.53;;;;;;;;;;5016881;28;20045;-71
2022/08/15 11:39:51;;;;;;;6.43;4.13;;;;;;;;;;5016734;28;20037;-70
2022/08/15 11:42:19;;;;;;;5.03;3.80;;;;;;;;;;5016628;28;20046;-71
2022/08/15 11:44:52;;;;;;;7.05;4.07;;;;;;;;;;5017392;28;20046;-71
2022/08/15 11:47:19;;;;;;;5.32;3.45;;;;;;;;;;5016792;28;20121;-70
2022/08/15 11:49:47;;;;;;;4.38;3.50;;;;;;;;;;5017288;28;20619;-71
2022/08/15 11:52:13;;;;;;;7.38;3.38;;;;;;;;;;5016529;28;20092;-71
2022/08/15 11:54:39;;;;;;;3.58;3.28;;;;;;;;;;5016148;28;20046;-70
2022/08/15 11:57:07;;;;;;;5.50;3.88;;;;;;;;;;5016085;28;20447;-71
2022/08/15 11:59:33;;;;;;;7.32;3.30;;;;;;;;;;5016015;28;20057;-71
2022/08/15 12:02:00;;;;;;;5.43;3.53;;;;;;;;;;5016561;28;20042;-71
2022/08/15 12:04:33;;;;;;;4.85;3.90;;;;;;;;;;5015864;28;20042;-71
2022/08/15 12:07:19;;;;;;;5.15;3.47;;;;;;;;;;5014934;28;20471;-70
2022/08/15 12:10:08;;;;;;;4.13;3.60;;;;;;;;;;5016294;28;20431;-71
2022/08/15 12:12:37;;;;;;;6.85;4.00;;;;;;;;;;5008620;28;20046;-71
2022/08/15 12:15:24;;;;;;;5.70;3.75;;;;;;;;;;5016814;28;20136;-70
2022/08/15 12:18:05;;;;;;;6.30;3.95;;;;;;;;;;5016009;28;20127;-71
2022/08/15 12:20:43;;;;;;;4.93;4.30;;;;;;;;;;5016735;28;20113;-71
2022/08/15 12:23:24;;;;;;;8.02;4.30;;;;;;;;;;5016459;28;20045;-70
2022/08/15 12:25:51;;;;;;;5.75;3.95;;;;;;;;;;5025999;28;20056;-71
2022/08/15 12:28:18;;;;;;;7.00;3.83;;;;;;;;;;5032008;28;20041;-72
2022/08/15 12:30:46;;;;;;;6.68;3.83;;;;;;;;;;5024495;28;20037;-71
2022/08/15 12:33:13;;;;;;;7.00;3.65;;;;;;;;;;5029578;28;20030;-71
2022/08/15 12:35:39;;;;;;;9.98;4.13;;;;;;;;;;5030588;28;20098;-71
2022/08/15 12:38:06;;;;;;;8.13;3.72;;;;;;;;;;5019517;28;20034;-70
2022/08/15 12:40:32;;;;;;;6.13;4.10;;;;;;;;;;5027588;28;20050;-71
2022/08/15 12:42:58;;;;;;;4.95;3.40;;;;;;;;;;5020203;28;20118;-71
2022/08/15 12:45:24;;;;;;;7.07;3.97;;;;;;;;;;5025968;28;20048;-72
2022/08/15 12:47:50;;;;;;;5.70;3.65;;;;;;;;;;5035895;28;20038;-70
2022/08/15 12:50:16;;;;;;;6.95;3.50;;;;;;;;;;5023724;28;20484;-73
2022/08/15 12:52:44;;;;;;;6.10;3.80;;;;;;;;;;5013201;28;20529;-69
2022/08/15 12:55:10;;;;;;;6.07;3.75;;;;;;;;;;5025944;28;20037;-71
2022/08/15 12:57:37;;;;;;;4.35;3.60;;;;;;;;;;5022434;28;20041;-72
2022/08/15 13:00:04;;;;;;;6.20;3.90;;;;;;;;;;5024656;28;20091;-71
2022/08/15 13:02:30;;;;;;;8.68;3.85;;;;;;;;;;5028710;28;20124;-71
2022/08/15 13:04:57;;;;;;;7.53;4.00;;;;;;;;;;5026888;28;20092;-71
2022/08/15 13:07:25;;;;;;;7.10;4.07;;;;;;;;;;5032387;28;20056;-70
2022/08/15 13:09:51;;;;;;;8.02;3.78;;;;;;;;;;5023630;28;20033;-71
2022/08/15 13:12:17;;;;;;;6.68;3.95;;;;;;;;;;5034495;28;20065;-71
2022/08/15 13:14:44;;;;;;;4.10;3.20;;;;;;;;;;5019357;28;20125;-71
2022/08/15 13:17:12;;;;;;;5.63;3.45;;;;;;;;;;5015174;28;20156;-71
2022/08/15 13:25:09;;;;;;;5.25;3.65;;;;;;;;;;5032979;28;20044;-69
2022/08/15 13:27:44;;;;;;;4.95;3.88;;;;;;;;;;5028825;28;20076;-69
2022/08/15 13:30:11;;;;;;;5.03;3.55;;;;;;;;;;5030087;28;20037;-71
2022/08/15 13:32:38;;;;;;;5.28;3.90;;;;;;;;;;5021924;28;20115;-70
2022/08/15 13:35:05;;;;;;;5.57;3.70;;;;;;;;;;5032599;28;20049;-70
2022/08/15 13:37:31;;;;;;;4.18;3.75;;;;;;;;;;5023241;28;20037;-70
2022/08/15 13:39:58;;;;;;;4.60;3.30;;;;;;;;;;5034797;28;20037;-70
2022/08/15 13:42:25;;;;;;;4.70;3.60;;;;;;;;;;5019889;28;20104;-71
2022/08/15 13:44:53;;;;;;;6.35;3.67;;;;;;;;;;5015067;28;20042;-70
2022/08/15 13:47:21;;;;;;;6.25;3.58;;;;;;;;;;5015815;28;20125;-70
2022/08/15 13:49:47;;;;;;;4.85;3.72;;;;;;;;;;5026480;28;20030;-71
2022/08/15 13:52:14;;;;;;;4.93;4.05;;;;;;;;;;5022581;28;20037;-70
2022/08/15 13:54:41;;;;;;;5.25;3.63;;;;;;;;;;5016790;28;20038;-71
2022/08/15 13:57:09;;;;;;;5.30;3.55;;;;;;;;;;5026049;28;20426;-70
2022/08/15 13:59:35;;;;;;;4.47;3.65;;;;;;;;;;5033182;28;20119;-71
2022/08/15 14:02:05;;;;;;;6.57;3.30;;;;;;;;;;5033436;28;20527;-70
2022/08/15 14:04:38;;;;;;;4.45;3.72;;;;;;;;;;5033954;28;20030;-71
2022/08/15 14:07:05;;;;;;;7.55;3.67;;;;;;;;;;5033724;28;20056;-71
2022/08/15 14:09:32;;;;;;;6.82;3.42;;;;;;;;;;5034011;28;20033;-71
2022/08/15 14:11:59;;;;;;;7.95;3.50;;;;;;;;;;5019532;28;20034;-71
2022/08/15 14:14:26;;;;;;;5.47;3.70;;;;;;;;;;5021583;28;20049;-70
2022/08/15 14:16:53;;;;;;;4.97;3.58;;;;;;;;;;5017280;28;20414;-70
2022/08/15 14:19:21;;;;;;;6.57;3.47;;;;;;;;;;5014128;28;20500;-70
2022/08/15 14:21:47;;;;;;;6.40;3.20;;;;;;;;;;5014174;28;20037;-70
2022/08/15 14:24:14;;;;;;;4.43;3.33;;;;;;;;;;5017967;28;20137;-70
2022/08/15 14:26:42;;;;;;;4.13;3.40;;;;;;;;;;5017586;28;20113;-70
2022/08/15 14:29:11;;;;;;;6.63;3.85;;;;;;;;;;5022338;28;20033;-70
2022/08/15 14:31:37;;;;;;;3.53;3.05;;;;;;;;;;5020171;28;20083;-70
2022/08/15 14:34:07;;;;;;;6.05;3.50;;;;;;;;;;5037485;28;20384;-70
2022/08/15 14:36:35;;;;;;;4.90;3.58;;;;;;;;;;5037137;28;20056;-70
2022/08/15 14:39:01;;;;;;;4.50;3.70;;;;;;;;;;5035836;28;20034;-70
2022/08/15 14:41:28;;;;;;;3.90;3.10;;;;;;;;;;5037016;28;20029;-70
2022/08/15 14:43:58;;;;;;;5.32;3.30;;;;;;;;;;5037267;28;20072;-70
2022/08/15 14:46:26;;;;;;;4.13;3.47;;;;;;;;;;5023327;28;20048;-71
2022/08/15 14:48:54;;;;;;;5.72;3.13;;;;;;;;;;5017478;28;20034;-71
2022/08/15 14:51:24;;;;;;;5.53;3.38;;;;;;;;;;5016996;28;20124;-70
2022/08/15 14:53:51;;;;;;;4.60;3.15;;;;;;;;;;5019672;28;20124;-71
2022/08/15 14:56:17;;;;;;;5.22;3.25;;;;;;;;;;5020747;28;20404;-71
2022/08/15 14:58:44;;;;;;;6.43;3.38;;;;;;;;;;5036403;28;20075;-70
2022/08/15 15:01:11;;;;;;;6.47;3.40;;;;;;;;;;5036128;28;20033;-71
2022/08/15 15:03:37;;;;;;;4.25;3.60;;;;;;;;;;5035288;28;20087;-72
2022/08/15 15:06:03;;;;;;;5.05;3.40;;;;;;;;;;5036647;28;20085;-71
2022/08/15 15:08:30;;;;;;;4.47;3.22;;;;;;;;;;5029471;28;20041;-70
2022/08/15 15:10:58;;;;;;;7.57;3.40;;;;;;;;;;5027718;28;20048;-72
2022/08/15 15:13:25;;;;;;;4.70;3.05;;;;;;;;;;5017211;28;20034;-72
2022/08/15 15:15:52;;;;;;;4.20;3.40;;;;;;;;;;5029158;28;20081;-70